sensor_id;sensor_type;location;lat;lon;timestamp;P1;durP1;ratioP1;P2;durP2;ratioP2
83190;SDS011;73087;49.924;22.080;2024-02-28T00:00:38;45.40;;;24.23;;
83190;SDS011;73087;49.924;22.080;2024-02-28T00:01:47;49.70;;;24.63;;
83190;SDS011;73087;49.924;22.080;2024-02-28T00:02:48;46.22;;;23.08;;
83190;SDS011;73087;49.924;22.080;2024-02-28T00:03:48;47.65;;;24.30;;
83190;SDS011;73087;49.924;22.080;2024-02-28T00:04:49;40.63;;;22.77;;
83190;SDS011;73087;49.924;22.080;2024-02-28T00:05:49;41.30;;;22.52;;
83190;SDS011;73087;49.924;22.080;2024-02-28T00:06:49;48.33;;;23.42;;
83190;SDS011;73087;49.924;22.080;2024-02-28T00:07:50;52.88;;;25.85;;
83190;SDS011;73087;49.924;22.080;2024-02-28T00:08:50;54.53;;;27.70;;
83190;SDS011;73087;49.924;22.080;2024-02-28T00:09:51;60.00;;;28.25;;
83190;SDS011;73087;49.924;22.080;2024-02-28T00:10:53;52.88;;;27.10;;
83190;SDS011;73087;49.924;22.080;2024-02-28T00:11:53;62.03;;;29.92;;
83190;SDS011;73087;49.924;22.080;2024-02-28T00:12:54;58.47;;;28.75;;
83190;SDS011;73087;49.924;22.080;2024-02-28T00:13:54;52.20;;;25.75;;
83190;SDS011;73087;49.924;22.080;2024-02-28T00:14:54;48.50;;;24.35;;
83190;SDS011;73087;49.924;22.080;2024-02-28T00:15:55;54.58;;;27.05;;
83190;SDS011;73087;49.924;22.080;2024-02-28T00:16:55;52.00;;;26.27;;
83190;SDS011;73087;49.924;22.080;2024-02-28T00:17:56;45.70;;;22.85;;
83190;SDS011;73087;49.924;22.080;2024-02-28T00:18:56;45.85;;;23.23;;
83190;SDS011;73087;49.924;22.080;2024-02-28T00:19:57;47.40;;;23.55;;
83190;SDS011;73087;49.924;22.080;2024-02-28T00:20:57;46.88;;;23.33;;
83190;SDS011;73087;49.924;22.080;2024-02-28T00:21:58;43.65;;;23.08;;
83190;SDS011;73087;49.924;22.080;2024-02-28T00:22:58;40.03;;;22.33;;
83190;SDS011;73087;49.924;22.080;2024-02-28T00:23:59;45.33;;;21.33;;
83190;SDS011;73087;49.924;22.080;2024-02-28T00:24:59;47.38;;;21.58;;
83190;SDS011;73087;49.924;22.080;2024-02-28T00:26:01;43.92;;;21.33;;
83190;SDS011;73087;49.924;22.080;2024-02-28T00:27:01;38.67;;;20.00;;
83190;SDS011;73087;49.924;22.080;2024-02-28T00:28:02;41.45;;;21.00;;
83190;SDS011;73087;49.924;22.080;2024-02-28T00:29:03;38.83;;;21.75;;
83190;SDS011;73087;49.924;22.080;2024-02-28T00:30:04;37.35;;;19.55;;
83190;SDS011;73087;49.924;22.080;2024-02-28T00:31:05;41.03;;;20.20;;
83190;SDS011;73087;49.924;22.080;2024-02-28T00:32:05;45.10;;;23.83;;
83190;SDS011;73087;49.924;22.080;2024-02-28T00:33:06;48.75;;;25.92;;
83190;SDS011;73087;49.924;22.080;2024-02-28T00:34:06;49.17;;;25.40;;
83190;SDS011;73087;49.924;22.080;2024-02-28T00:35:07;43.38;;;21.20;;
83190;SDS011;73087;49.924;22.080;2024-02-28T00:36:08;40.95;;;22.13;;
83190;SDS011;73087;49.924;22.080;2024-02-28T00:37:08;43.58;;;22.05;;
83190;SDS011;73087;49.924;22.080;2024-02-28T00:38:09;46.92;;;22.92;;
83190;SDS011;73087;49.924;22.080;2024-02-28T00:39:09;46.08;;;23.15;;
83190;SDS011;73087;49.924;22.080;2024-02-28T00:40:10;49.90;;;24.73;;
83190;SDS011;73087;49.924;22.080;2024-02-28T00:41:13;46.25;;;23.67;;
83190;SDS011;73087;49.924;22.080;2024-02-28T00:42:13;47.28;;;25.13;;
83190;SDS011;73087;49.924;22.080;2024-02-28T00:43:14;60.15;;;29.00;;
83190;SDS011;73087;49.924;22.080;2024-02-28T00:44:15;63.33;;;27.20;;
83190;SDS011;73087;49.924;22.080;2024-02-28T00:45:15;45.35;;;23.83;;
83190;SDS011;73087;49.924;22.080;2024-02-28T00:46:16;42.03;;;22.83;;
83190;SDS011;73087;49.924;22.080;2024-02-28T00:47:16;43.97;;;21.13;;
83190;SDS011;73087;49.924;22.080;2024-02-28T00:48:17;49.20;;;24.48;;
83190;SDS011;73087;49.924;22.080;2024-02-28T00:49:19;48.58;;;23.83;;
83190;SDS011;73087;49.924;22.080;2024-02-28T00:50:19;46.25;;;22.58;;
83190;SDS011;73087;49.924;22.080;2024-02-28T00:51:20;39.63;;;20.90;;
83190;SDS011;73087;49.924;22.080;2024-02-28T00:52:20;39.40;;;20.05;;
83190;SDS011;73087;49.924;22.080;2024-02-28T00:53:21;40.03;;;22.05;;
83190;SDS011;73087;49.924;22.080;2024-02-28T00:54:21;41.45;;;20.02;;
83190;SDS011;73087;49.924;22.080;2024-02-28T00:55:22;46.75;;;22.92;;
83190;SDS011;73087;49.924;22.080;2024-02-28T00:56:23;38.75;;;20.58;;
83190;SDS011;73087;49.924;22.080;2024-02-28T00:57:24;34.97;;;19.65;;
83190;SDS011;73087;49.924;22.080;2024-02-28T00:58:24;39.10;;;20.17;;
83190;SDS011;73087;49.924;22.080;2024-02-28T00:59:25;34.60;;;19.25;;
83190;SDS011;73087;49.924;22.080;2024-02-28T01:00:25;36.92;;;19.83;;
83190;SDS011;73087;49.924;22.080;2024-02-28T01:01:26;43.88;;;20.52;;
83190;SDS011;73087;49.924;22.080;2024-02-28T01:02:26;35.65;;;19.20;;
83190;SDS011;73087;49.924;22.080;2024-02-28T01:03:27;38.42;;;19.42;;
83190;SDS011;73087;49.924;22.080;2024-02-28T01:04:27;36.97;;;19.02;;
83190;SDS011;73087;49.924;22.080;2024-02-28T01:05:28;32.30;;;17.83;;
83190;SDS011;73087;49.924;22.080;2024-02-28T01:06:28;29.38;;;16.60;;
83190;SDS011;73087;49.924;22.080;2024-02-28T01:07:29;32.35;;;17.17;;
83190;SDS011;73087;49.924;22.080;2024-02-28T01:08:29;29.05;;;16.23;;
83190;SDS011;73087;49.924;22.080;2024-02-28T01:09:30;31.90;;;16.73;;
83190;SDS011;73087;49.924;22.080;2024-02-28T01:10:30;32.78;;;16.55;;
83190;SDS011;73087;49.924;22.080;2024-02-28T01:11:32;29.90;;;16.63;;
83190;SDS011;73087;49.924;22.080;2024-02-28T01:12:32;30.13;;;16.60;;
83190;SDS011;73087;49.924;22.080;2024-02-28T01:13:33;29.70;;;17.30;;
83190;SDS011;73087;49.924;22.080;2024-02-28T01:14:33;32.58;;;16.70;;
83190;SDS011;73087;49.924;22.080;2024-02-28T01:15:34;29.83;;;16.90;;
83190;SDS011;73087;49.924;22.080;2024-02-28T01:16:34;34.70;;;16.35;;
83190;SDS011;73087;49.924;22.080;2024-02-28T01:17:35;30.65;;;17.90;;
83190;SDS011;73087;49.924;22.080;2024-02-28T01:18:35;33.22;;;16.65;;
83190;SDS011;73087;49.924;22.080;2024-02-28T01:19:36;32.95;;;17.55;;
83190;SDS011;73087;49.924;22.080;2024-02-28T01:20:36;32.72;;;17.65;;
83190;SDS011;73087;49.924;22.080;2024-02-28T01:21:38;34.28;;;19.10;;
83190;SDS011;73087;49.924;22.080;2024-02-28T01:22:39;31.85;;;18.13;;
83190;SDS011;73087;49.924;22.080;2024-02-28T01:23:39;34.53;;;17.85;;
83190;SDS011;73087;49.924;22.080;2024-02-28T01:24:39;28.48;;;14.95;;
83190;SDS011;73087;49.924;22.080;2024-02-28T01:25:40;25.40;;;14.40;;
83190;SDS011;73087;49.924;22.080;2024-02-28T01:26:42;25.08;;;14.05;;
83190;SDS011;73087;49.924;22.080;2024-02-28T01:27:42;29.13;;;15.25;;
83190;SDS011;73087;49.924;22.080;2024-02-28T01:28:43;26.17;;;14.65;;
83190;SDS011;73087;49.924;22.080;2024-02-28T01:29:43;27.50;;;14.45;;
83190;SDS011;73087;49.924;22.080;2024-02-28T01:30:44;23.60;;;13.68;;
83190;SDS011;73087;49.924;22.080;2024-02-28T01:31:44;26.98;;;14.07;;
83190;SDS011;73087;49.924;22.080;2024-02-28T01:32:45;29.88;;;14.88;;
83190;SDS011;73087;49.924;22.080;2024-02-28T01:33:45;25.30;;;14.60;;
83190;SDS011;73087;49.924;22.080;2024-02-28T01:34:46;24.27;;;14.73;;
83190;SDS011;73087;49.924;22.080;2024-02-28T01:35:46;24.05;;;13.65;;
83190;SDS011;73087;49.924;22.080;2024-02-28T01:36:47;25.45;;;13.15;;
83190;SDS011;73087;49.924;22.080;2024-02-28T01:37:49;22.70;;;13.90;;
83190;SDS011;73087;49.924;22.080;2024-02-28T01:38:49;29.52;;;14.88;;
83190;SDS011;73087;49.924;22.080;2024-02-28T01:39:50;28.35;;;16.10;;
83190;SDS011;73087;49.924;22.080;2024-02-28T01:40:50;28.95;;;15.43;;
83190;SDS011;73087;49.924;22.080;2024-02-28T01:41:52;29.63;;;15.98;;
83190;SDS011;73087;49.924;22.080;2024-02-28T01:42:53;28.00;;;14.73;;
83190;SDS011;73087;49.924;22.080;2024-02-28T01:43:53;29.73;;;15.95;;
83190;SDS011;73087;49.924;22.080;2024-02-28T01:44:54;29.25;;;14.85;;
83190;SDS011;73087;49.924;22.080;2024-02-28T01:45:54;29.00;;;15.75;;
83190;SDS011;73087;49.924;22.080;2024-02-28T01:46:55;27.58;;;15.52;;
83190;SDS011;73087;49.924;22.080;2024-02-28T01:47:56;27.00;;;13.70;;
83190;SDS011;73087;49.924;22.080;2024-02-28T01:48:58;30.00;;;16.30;;
83190;SDS011;73087;49.924;22.080;2024-02-28T01:49:59;26.73;;;15.73;;
83190;SDS011;73087;49.924;22.080;2024-02-28T01:51:00;30.85;;;15.65;;
83190;SDS011;73087;49.924;22.080;2024-02-28T01:52:01;26.25;;;14.75;;
83190;SDS011;73087;49.924;22.080;2024-02-28T01:53:02;25.98;;;15.63;;
83190;SDS011;73087;49.924;22.080;2024-02-28T01:54:03;33.50;;;16.10;;
83190;SDS011;73087;49.924;22.080;2024-02-28T01:55:05;26.52;;;15.95;;
83190;SDS011;73087;49.924;22.080;2024-02-28T01:56:06;27.17;;;15.50;;
83190;SDS011;73087;49.924;22.080;2024-02-28T01:57:08;23.75;;;12.43;;
83190;SDS011;73087;49.924;22.080;2024-02-28T01:58:09;25.25;;;15.82;;
83190;SDS011;73087;49.924;22.080;2024-02-28T01:59:11;24.73;;;13.38;;
83190;SDS011;73087;49.924;22.080;2024-02-28T02:00:12;20.90;;;12.30;;
83190;SDS011;73087;49.924;22.080;2024-02-28T02:01:15;21.02;;;12.75;;
83190;SDS011;73087;49.924;22.080;2024-02-28T02:02:16;21.73;;;12.23;;
83190;SDS011;73087;49.924;22.080;2024-02-28T02:03:17;23.08;;;13.50;;
83190;SDS011;73087;49.924;22.080;2024-02-28T02:04:17;23.35;;;13.32;;
83190;SDS011;73087;49.924;22.080;2024-02-28T02:05:18;32.25;;;14.60;;
83190;SDS011;73087;49.924;22.080;2024-02-28T02:06:18;26.40;;;14.82;;
83190;SDS011;73087;49.924;22.080;2024-02-28T02:07:19;25.70;;;14.73;;
83190;SDS011;73087;49.924;22.080;2024-02-28T02:08:20;24.75;;;14.43;;
83190;SDS011;73087;49.924;22.080;2024-02-28T02:09:21;26.48;;;15.63;;
83190;SDS011;73087;49.924;22.080;2024-02-28T02:10:22;24.50;;;13.70;;
83190;SDS011;73087;49.924;22.080;2024-02-28T02:11:22;19.70;;;12.65;;
83190;SDS011;73087;49.924;22.080;2024-02-28T02:12:26;24.23;;;14.80;;
83190;SDS011;73087;49.924;22.080;2024-02-28T02:13:26;26.50;;;13.88;;
83190;SDS011;73087;49.924;22.080;2024-02-28T02:14:27;25.45;;;12.77;;
83190;SDS011;73087;49.924;22.080;2024-02-28T02:15:27;21.98;;;12.55;;
83190;SDS011;73087;49.924;22.080;2024-02-28T02:16:28;24.52;;;11.98;;
83190;SDS011;73087;49.924;22.080;2024-02-28T02:17:28;18.50;;;12.10;;
83190;SDS011;73087;49.924;22.080;2024-02-28T02:18:29;19.90;;;11.30;;
83190;SDS011;73087;49.924;22.080;2024-02-28T02:19:29;22.17;;;11.93;;
83190;SDS011;73087;49.924;22.080;2024-02-28T02:20:30;20.00;;;11.68;;
83190;SDS011;73087;49.924;22.080;2024-02-28T02:21:34;18.42;;;10.60;;
83190;SDS011;73087;49.924;22.080;2024-02-28T02:22:38;21.10;;;12.35;;
83190;SDS011;73087;49.924;22.080;2024-02-28T02:23:39;23.50;;;12.40;;
83190;SDS011;73087;49.924;22.080;2024-02-28T02:24:40;21.20;;;12.93;;
83190;SDS011;73087;49.924;22.080;2024-02-28T02:25:43;21.23;;;12.43;;
83190;SDS011;73087;49.924;22.080;2024-02-28T02:26:44;20.77;;;12.45;;
83190;SDS011;73087;49.924;22.080;2024-02-28T02:27:44;19.08;;;11.70;;
83190;SDS011;73087;49.924;22.080;2024-02-28T02:28:45;22.33;;;12.23;;
83190;SDS011;73087;49.924;22.080;2024-02-28T02:29:45;22.50;;;12.90;;
83190;SDS011;73087;49.924;22.080;2024-02-28T02:30:46;22.27;;;12.68;;
83190;SDS011;73087;49.924;22.080;2024-02-28T02:31:46;25.90;;;13.82;;
83190;SDS011;73087;49.924;22.080;2024-02-28T02:32:47;28.25;;;15.27;;
83190;SDS011;73087;49.924;22.080;2024-02-28T02:33:47;20.95;;;12.98;;
83190;SDS011;73087;49.924;22.080;2024-02-28T02:34:48;22.35;;;12.60;;
83190;SDS011;73087;49.924;22.080;2024-02-28T02:35:48;30.17;;;17.60;;
83190;SDS011;73087;49.924;22.080;2024-02-28T02:36:49;29.10;;;16.27;;
83190;SDS011;73087;49.924;22.080;2024-02-28T02:37:51;35.53;;;19.10;;
83190;SDS011;73087;49.924;22.080;2024-02-28T02:38:51;24.23;;;14.35;;
83190;SDS011;73087;49.924;22.080;2024-02-28T02:39:52;30.17;;;16.38;;
83190;SDS011;73087;49.924;22.080;2024-02-28T02:40:53;24.33;;;13.30;;
83190;SDS011;73087;49.924;22.080;2024-02-28T02:41:54;23.17;;;13.43;;
83190;SDS011;73087;49.924;22.080;2024-02-28T02:42:54;22.70;;;12.55;;
83190;SDS011;73087;49.924;22.080;2024-02-28T02:43:54;21.65;;;11.93;;
83190;SDS011;73087;49.924;22.080;2024-02-28T02:44:55;21.73;;;12.70;;
83190;SDS011;73087;49.924;22.080;2024-02-28T02:45:55;23.08;;;14.20;;
83190;SDS011;73087;49.924;22.080;2024-02-28T02:46:56;23.10;;;13.02;;
83190;SDS011;73087;49.924;22.080;2024-02-28T02:47:56;24.73;;;13.90;;
83190;SDS011;73087;49.924;22.080;2024-02-28T02:48:57;25.15;;;13.38;;
83190;SDS011;73087;49.924;22.080;2024-02-28T02:49:59;25.23;;;14.15;;
83190;SDS011;73087;49.924;22.080;2024-02-28T02:50:59;29.33;;;15.00;;
83190;SDS011;73087;49.924;22.080;2024-02-28T02:52:00;26.05;;;14.18;;
83190;SDS011;73087;49.924;22.080;2024-02-28T02:53:02;28.25;;;14.95;;
83190;SDS011;73087;49.924;22.080;2024-02-28T02:54:03;27.50;;;14.68;;
83190;SDS011;73087;49.924;22.080;2024-02-28T02:55:03;24.42;;;13.75;;
83190;SDS011;73087;49.924;22.080;2024-02-28T02:56:05;24.95;;;13.82;;
83190;SDS011;73087;49.924;22.080;2024-02-28T02:57:06;27.27;;;14.45;;
83190;SDS011;73087;49.924;22.080;2024-02-28T02:58:06;25.25;;;14.10;;
83190;SDS011;73087;49.924;22.080;2024-02-28T02:59:07;26.52;;;14.13;;
83190;SDS011;73087;49.924;22.080;2024-02-28T03:00:08;24.83;;;14.90;;
83190;SDS011;73087;49.924;22.080;2024-02-28T03:01:09;24.73;;;13.48;;
83190;SDS011;73087;49.924;22.080;2024-02-28T03:02:09;25.60;;;14.85;;
83190;SDS011;73087;49.924;22.080;2024-02-28T03:03:10;25.02;;;14.45;;
83190;SDS011;73087;49.924;22.080;2024-02-28T03:04:10;31.60;;;17.48;;
83190;SDS011;73087;49.924;22.080;2024-02-28T03:05:11;41.65;;;22.92;;
83190;SDS011;73087;49.924;22.080;2024-02-28T03:06:11;36.75;;;20.58;;
83190;SDS011;73087;49.924;22.080;2024-02-28T03:07:12;35.13;;;20.58;;
83190;SDS011;73087;49.924;22.080;2024-02-28T03:08:14;32.05;;;17.98;;
83190;SDS011;73087;49.924;22.080;2024-02-28T03:09:15;31.63;;;17.48;;
83190;SDS011;73087;49.924;22.080;2024-02-28T03:10:15;35.00;;;18.38;;
83190;SDS011;73087;49.924;22.080;2024-02-28T03:11:15;36.25;;;17.95;;
83190;SDS011;73087;49.924;22.080;2024-02-28T03:12:16;31.25;;;17.35;;
83190;SDS011;73087;49.924;22.080;2024-02-28T03:13:16;32.85;;;17.27;;
83190;SDS011;73087;49.924;22.080;2024-02-28T03:14:17;31.73;;;17.08;;
83190;SDS011;73087;49.924;22.080;2024-02-28T03:15:17;30.92;;;17.40;;
83190;SDS011;73087;49.924;22.080;2024-02-28T03:16:18;33.30;;;16.83;;
83190;SDS011;73087;49.924;22.080;2024-02-28T03:17:18;30.40;;;16.83;;
83190;SDS011;73087;49.924;22.080;2024-02-28T03:18:19;29.17;;;16.40;;
83190;SDS011;73087;49.924;22.080;2024-02-28T03:19:19;32.33;;;18.85;;
83190;SDS011;73087;49.924;22.080;2024-02-28T03:20:20;34.00;;;19.02;;
83190;SDS011;73087;49.924;22.080;2024-02-28T03:21:20;34.80;;;20.45;;
83190;SDS011;73087;49.924;22.080;2024-02-28T03:22:21;36.28;;;20.05;;
83190;SDS011;73087;49.924;22.080;2024-02-28T03:23:23;36.85;;;21.33;;
83190;SDS011;73087;49.924;22.080;2024-02-28T03:24:23;35.45;;;19.55;;
83190;SDS011;73087;49.924;22.080;2024-02-28T03:25:24;35.55;;;20.25;;
83190;SDS011;73087;49.924;22.080;2024-02-28T03:26:24;30.90;;;17.85;;
83190;SDS011;73087;49.924;22.080;2024-02-28T03:27:25;34.50;;;18.10;;
83190;SDS011;73087;49.924;22.080;2024-02-28T03:28:25;29.73;;;17.17;;
83190;SDS011;73087;49.924;22.080;2024-02-28T03:29:25;36.03;;;17.70;;
83190;SDS011;73087;49.924;22.080;2024-02-28T03:30:26;35.25;;;18.73;;
83190;SDS011;73087;49.924;22.080;2024-02-28T03:31:27;32.90;;;17.55;;
83190;SDS011;73087;49.924;22.080;2024-02-28T03:32:27;30.85;;;16.85;;
83190;SDS011;73087;49.924;22.080;2024-02-28T03:33:28;26.65;;;16.23;;
83190;SDS011;73087;49.924;22.080;2024-02-28T03:34:28;32.28;;;16.58;;
83190;SDS011;73087;49.924;22.080;2024-02-28T03:35:29;26.67;;;15.65;;
83190;SDS011;73087;49.924;22.080;2024-02-28T03:36:29;26.88;;;14.73;;
83190;SDS011;73087;49.924;22.080;2024-02-28T03:37:30;23.60;;;14.65;;
83190;SDS011;73087;49.924;22.080;2024-02-28T03:38:31;24.45;;;15.57;;
83190;SDS011;73087;49.924;22.080;2024-02-28T03:39:32;22.52;;;13.88;;
83190;SDS011;73087;49.924;22.080;2024-02-28T03:40:32;24.65;;;14.85;;
83190;SDS011;73087;49.924;22.080;2024-02-28T03:41:33;27.33;;;15.00;;
83190;SDS011;73087;49.924;22.080;2024-02-28T03:42:33;24.77;;;15.45;;
83190;SDS011;73087;49.924;22.080;2024-02-28T03:43:34;23.45;;;14.48;;
83190;SDS011;73087;49.924;22.080;2024-02-28T03:44:34;23.92;;;14.38;;
83190;SDS011;73087;49.924;22.080;2024-02-28T03:45:36;27.00;;;14.07;;
83190;SDS011;73087;49.924;22.080;2024-02-28T03:46:37;28.38;;;16.20;;
83190;SDS011;73087;49.924;22.080;2024-02-28T03:47:37;28.92;;;15.50;;
83190;SDS011;73087;49.924;22.080;2024-02-28T03:48:38;27.42;;;16.38;;
83190;SDS011;73087;49.924;22.080;2024-02-28T03:49:38;29.33;;;16.88;;
83190;SDS011;73087;49.924;22.080;2024-02-28T03:50:39;34.45;;;18.02;;
83190;SDS011;73087;49.924;22.080;2024-02-28T03:51:39;31.55;;;17.13;;
83190;SDS011;73087;49.924;22.080;2024-02-28T03:52:40;32.22;;;16.90;;
83190;SDS011;73087;49.924;22.080;2024-02-28T03:53:42;33.33;;;18.38;;
83190;SDS011;73087;49.924;22.080;2024-02-28T03:54:42;30.95;;;17.17;;
83190;SDS011;73087;49.924;22.080;2024-02-28T03:55:43;34.58;;;15.55;;
83190;SDS011;73087;49.924;22.080;2024-02-28T03:56:43;33.63;;;16.83;;
83190;SDS011;73087;49.924;22.080;2024-02-28T03:57:46;31.50;;;15.63;;
83190;SDS011;73087;49.924;22.080;2024-02-28T03:58:47;30.30;;;16.70;;
83190;SDS011;73087;49.924;22.080;2024-02-28T03:59:47;29.45;;;16.55;;
83190;SDS011;73087;49.924;22.080;2024-02-28T04:00:48;32.20;;;17.13;;
83190;SDS011;73087;49.924;22.080;2024-02-28T04:01:48;27.42;;;16.10;;
83190;SDS011;73087;49.924;22.080;2024-02-28T04:02:49;27.50;;;15.82;;
83190;SDS011;73087;49.924;22.080;2024-02-28T04:03:49;29.60;;;16.23;;
83190;SDS011;73087;49.924;22.080;2024-02-28T04:04:49;31.00;;;16.30;;
83190;SDS011;73087;49.924;22.080;2024-02-28T04:05:50;26.80;;;15.82;;
83190;SDS011;73087;49.924;22.080;2024-02-28T04:06:51;31.10;;;16.42;;
83190;SDS011;73087;49.924;22.080;2024-02-28T04:07:52;30.35;;;16.20;;
83190;SDS011;73087;49.924;22.080;2024-02-28T04:08:54;32.25;;;17.63;;
83190;SDS011;73087;49.924;22.080;2024-02-28T04:09:54;30.40;;;16.13;;
83190;SDS011;73087;49.924;22.080;2024-02-28T04:10:55;34.95;;;17.02;;
83190;SDS011;73087;49.924;22.080;2024-02-28T04:11:55;32.83;;;15.93;;
83190;SDS011;73087;49.924;22.080;2024-02-28T04:12:55;29.85;;;16.45;;
83190;SDS011;73087;49.924;22.080;2024-02-28T04:13:56;33.80;;;16.10;;
83190;SDS011;73087;49.924;22.080;2024-02-28T04:14:56;32.47;;;16.98;;
83190;SDS011;73087;49.924;22.080;2024-02-28T04:15:57;31.80;;;16.13;;
83190;SDS011;73087;49.924;22.080;2024-02-28T04:16:57;28.42;;;15.80;;
83190;SDS011;73087;49.924;22.080;2024-02-28T04:17:58;28.65;;;15.48;;
83190;SDS011;73087;49.924;22.080;2024-02-28T04:18:58;27.35;;;15.27;;
83190;SDS011;73087;49.924;22.080;2024-02-28T04:19:59;25.60;;;15.52;;
83190;SDS011;73087;49.924;22.080;2024-02-28T04:20:59;29.90;;;14.73;;
83190;SDS011;73087;49.924;22.080;2024-02-28T04:21:59;25.55;;;14.00;;
83190;SDS011;73087;49.924;22.080;2024-02-28T04:23:00;26.17;;;15.02;;
83190;SDS011;73087;49.924;22.080;2024-02-28T04:24:02;29.25;;;17.08;;
83190;SDS011;73087;49.924;22.080;2024-02-28T04:25:03;30.77;;;16.02;;
83190;SDS011;73087;49.924;22.080;2024-02-28T04:26:04;29.58;;;16.05;;
83190;SDS011;73087;49.924;22.080;2024-02-28T04:27:05;31.30;;;16.80;;
83190;SDS011;73087;49.924;22.080;2024-02-28T04:28:06;27.60;;;15.88;;
83190;SDS011;73087;49.924;22.080;2024-02-28T04:29:06;27.00;;;16.52;;
83190;SDS011;73087;49.924;22.080;2024-02-28T04:30:07;29.10;;;14.80;;
83190;SDS011;73087;49.924;22.080;2024-02-28T04:31:08;26.00;;;14.68;;
83190;SDS011;73087;49.924;22.080;2024-02-28T04:32:09;25.52;;;14.82;;
83190;SDS011;73087;49.924;22.080;2024-02-28T04:33:10;23.95;;;14.57;;
83190;SDS011;73087;49.924;22.080;2024-02-28T04:34:10;23.85;;;14.43;;
83190;SDS011;73087;49.924;22.080;2024-02-28T04:35:11;26.88;;;14.68;;
83190;SDS011;73087;49.924;22.080;2024-02-28T04:36:11;26.55;;;15.00;;
83190;SDS011;73087;49.924;22.080;2024-02-28T04:37:12;29.27;;;14.07;;
83190;SDS011;73087;49.924;22.080;2024-02-28T04:38:12;29.58;;;14.68;;
83190;SDS011;73087;49.924;22.080;2024-02-28T04:39:14;27.83;;;15.38;;
83190;SDS011;73087;49.924;22.080;2024-02-28T04:40:15;28.20;;;15.10;;
83190;SDS011;73087;49.924;22.080;2024-02-28T04:41:15;26.67;;;14.65;;
83190;SDS011;73087;49.924;22.080;2024-02-28T04:42:16;28.80;;;15.70;;
83190;SDS011;73087;49.924;22.080;2024-02-28T04:43:16;29.20;;;15.98;;
83190;SDS011;73087;49.924;22.080;2024-02-28T04:44:17;25.42;;;13.57;;
83190;SDS011;73087;49.924;22.080;2024-02-28T04:45:17;26.60;;;14.88;;
83190;SDS011;73087;49.924;22.080;2024-02-28T04:46:18;26.48;;;16.08;;
83190;SDS011;73087;49.924;22.080;2024-02-28T04:47:18;27.27;;;14.68;;
83190;SDS011;73087;49.924;22.080;2024-02-28T04:48:19;29.70;;;15.73;;
83190;SDS011;73087;49.924;22.080;2024-02-28T04:49:19;27.67;;;15.35;;
83190;SDS011;73087;49.924;22.080;2024-02-28T04:50:20;26.33;;;14.30;;
83190;SDS011;73087;49.924;22.080;2024-02-28T04:51:20;30.27;;;15.40;;
83190;SDS011;73087;49.924;22.080;2024-02-28T04:52:21;27.58;;;15.60;;
83190;SDS011;73087;49.924;22.080;2024-02-28T04:53:21;28.58;;;15.50;;
83190;SDS011;73087;49.924;22.080;2024-02-28T04:54:23;33.42;;;16.50;;
83190;SDS011;73087;49.924;22.080;2024-02-28T04:55:23;28.20;;;16.63;;
83190;SDS011;73087;49.924;22.080;2024-02-28T04:56:24;32.80;;;17.30;;
83190;SDS011;73087;49.924;22.080;2024-02-28T04:57:24;28.35;;;14.82;;
83190;SDS011;73087;49.924;22.080;2024-02-28T04:58:25;30.60;;;15.85;;
83190;SDS011;73087;49.924;22.080;2024-02-28T04:59:25;28.67;;;16.33;;
83190;SDS011;73087;49.924;22.080;2024-02-28T05:00:26;27.90;;;15.18;;
83190;SDS011;73087;49.924;22.080;2024-02-28T05:01:26;27.48;;;15.40;;
83190;SDS011;73087;49.924;22.080;2024-02-28T05:02:27;28.88;;;16.00;;
83190;SDS011;73087;49.924;22.080;2024-02-28T05:03:27;34.13;;;16.35;;
83190;SDS011;73087;49.924;22.080;2024-02-28T05:04:28;30.38;;;16.40;;
83190;SDS011;73087;49.924;22.080;2024-02-28T05:05:28;30.67;;;16.05;;
83190;SDS011;73087;49.924;22.080;2024-02-28T05:06:28;32.25;;;16.92;;
83190;SDS011;73087;49.924;22.080;2024-02-28T05:07:29;32.17;;;16.15;;
83190;SDS011;73087;49.924;22.080;2024-02-28T05:08:29;31.52;;;16.63;;
83190;SDS011;73087;49.924;22.080;2024-02-28T05:09:31;30.23;;;16.23;;
83190;SDS011;73087;49.924;22.080;2024-02-28T05:10:32;33.08;;;16.58;;
83190;SDS011;73087;49.924;22.080;2024-02-28T05:11:32;37.53;;;19.40;;
83190;SDS011;73087;49.924;22.080;2024-02-28T05:12:33;34.60;;;19.05;;
83190;SDS011;73087;49.924;22.080;2024-02-28T05:13:34;36.42;;;20.20;;
83190;SDS011;73087;49.924;22.080;2024-02-28T05:14:35;35.85;;;18.60;;
83190;SDS011;73087;49.924;22.080;2024-02-28T05:15:35;31.83;;;17.83;;
83190;SDS011;73087;49.924;22.080;2024-02-28T05:16:36;32.20;;;17.35;;
83190;SDS011;73087;49.924;22.080;2024-02-28T05:17:36;34.35;;;16.55;;
83190;SDS011;73087;49.924;22.080;2024-02-28T05:18:37;28.42;;;15.88;;
83190;SDS011;73087;49.924;22.080;2024-02-28T05:19:37;27.52;;;15.70;;
83190;SDS011;73087;49.924;22.080;2024-02-28T05:20:39;26.65;;;15.52;;
83190;SDS011;73087;49.924;22.080;2024-02-28T05:21:39;28.40;;;16.63;;
83190;SDS011;73087;49.924;22.080;2024-02-28T05:22:40;30.92;;;16.15;;
83190;SDS011;73087;49.924;22.080;2024-02-28T05:23:40;32.10;;;17.05;;
83190;SDS011;73087;49.924;22.080;2024-02-28T05:24:45;29.33;;;16.75;;
83190;SDS011;73087;49.924;22.080;2024-02-28T05:25:46;30.20;;;16.77;;
83190;SDS011;73087;49.924;22.080;2024-02-28T05:26:46;32.17;;;16.80;;
83190;SDS011;73087;49.924;22.080;2024-02-28T05:27:47;35.67;;;16.98;;
83190;SDS011;73087;49.924;22.080;2024-02-28T05:28:47;29.77;;;16.55;;
83190;SDS011;73087;49.924;22.080;2024-02-28T05:29:47;25.20;;;15.27;;
83190;SDS011;73087;49.924;22.080;2024-02-28T05:30:48;28.95;;;15.90;;
83190;SDS011;73087;49.924;22.080;2024-02-28T05:31:48;27.45;;;13.38;;
83190;SDS011;73087;49.924;22.080;2024-02-28T05:32:49;30.60;;;15.82;;
83190;SDS011;73087;49.924;22.080;2024-02-28T05:33:50;28.85;;;15.10;;
83190;SDS011;73087;49.924;22.080;2024-02-28T05:34:51;32.70;;;15.65;;
83190;SDS011;73087;49.924;22.080;2024-02-28T05:35:51;30.42;;;16.30;;
83190;SDS011;73087;49.924;22.080;2024-02-28T05:36:53;28.85;;;15.95;;
83190;SDS011;73087;49.924;22.080;2024-02-28T05:37:53;30.05;;;15.88;;
83190;SDS011;73087;49.924;22.080;2024-02-28T05:38:54;28.40;;;15.63;;
83190;SDS011;73087;49.924;22.080;2024-02-28T05:39:57;28.73;;;15.77;;
83190;SDS011;73087;49.924;22.080;2024-02-28T05:40:58;30.35;;;16.75;;
83190;SDS011;73087;49.924;22.080;2024-02-28T05:41:58;35.55;;;16.85;;
83190;SDS011;73087;49.924;22.080;2024-02-28T05:42:59;27.40;;;15.40;;
83190;SDS011;73087;49.924;22.080;2024-02-28T05:43:59;30.98;;;16.25;;
83190;SDS011;73087;49.924;22.080;2024-02-28T05:45:00;29.02;;;16.60;;
83190;SDS011;73087;49.924;22.080;2024-02-28T05:46:00;30.10;;;16.90;;
83190;SDS011;73087;49.924;22.080;2024-02-28T05:47:01;34.42;;;16.35;;
83190;SDS011;73087;49.924;22.080;2024-02-28T05:48:01;26.27;;;15.32;;
83190;SDS011;73087;49.924;22.080;2024-02-28T05:49:02;28.65;;;16.65;;
83190;SDS011;73087;49.924;22.080;2024-02-28T05:50:03;29.23;;;16.80;;